sensor_id;sensor_type;location;lat;lon;timestamp;temperature;humidity
10129;DHT22;5104;50.720;7.044;2023-03-30T00:00:52;14.00;1.00
10129;DHT22;5104;50.720;7.044;2023-03-30T00:03:19;13.90;1.00
10129;DHT22;5104;50.720;7.044;2023-03-30T00:05:47;13.90;1.00
10129;DHT22;5104;50.720;7.044;2023-03-30T00:08:14;13.90;1.00
10129;DHT22;5104;50.720;7.044;2023-03-30T00:10:44;13.90;1.00
10129;DHT22;5104;50.720;7.044;2023-03-30T00:13:11;13.90;1.00
10129;DHT22;5104;50.720;7.044;2023-03-30T00:15:39;14.00;1.00
10129;DHT22;5104;50.720;7.044;2023-03-30T00:18:06;14.00;1.00
10129;DHT22;5104;50.720;7.044;2023-03-30T00:20:33;13.90;1.00
10129;DHT22;5104;50.720;7.044;2023-03-30T00:23:02;13.90;1.00
10129;DHT22;5104;50.720;7.044;2023-03-30T00:25:29;13.90;1.00
10129;DHT22;5104;50.720;7.044;2023-03-30T00:27:57;13.80;1.00
10129;DHT22;5104;50.720;7.044;2023-03-30T00:30:24;13.70;1.00
10129;DHT22;5104;50.720;7.044;2023-03-30T00:32:51;13.60;1.00
10129;DHT22;5104;50.720;7.044;2023-03-30T00:35:18;13.50;1.00
10129;DHT22;5104;50.720;7.044;2023-03-30T00:37:45;13.50;1.00
10129;DHT22;5104;50.720;7.044;2023-03-30T00:40:16;13.40;1.00
10129;DHT22;5104;50.720;7.044;2023-03-30T00:42:43;13.40;1.00
10129;DHT22;5104;50.720;7.044;2023-03-30T00:45:21;13.40;1.00
10129;DHT22;5104;50.720;7.044;2023-03-30T00:47:53;13.40;1.00
10129;DHT22;5104;50.720;7.044;2023-03-30T00:50:26;13.40;1.00
10129;DHT22;5104;50.720;7.044;2023-03-30T00:52:55;13.40;1.00
10129;DHT22;5104;50.720;7.044;2023-03-30T00:55:28;13.30;1.00
10129;DHT22;5104;50.720;7.044;2023-03-30T00:57:56;13.20;33.70
10129;DHT22;5104;50.720;7.044;2023-03-30T01:00:25;13.20;85.90
10129;DHT22;5104;50.720;7.044;2023-03-30T01:02:55;13.20;99.90
10129;DHT22;5104;50.720;7.044;2023-03-30T01:05:24;13.10;99.90
10129;DHT22;5104;50.720;7.044;2023-03-30T01:07:51;13.20;99.90
10129;DHT22;5104;50.720;7.044;2023-03-30T01:10:18;13.20;99.90
10129;DHT22;5104;50.720;7.044;2023-03-30T01:12:46;13.30;99.90
10129;DHT22;5104;50.720;7.044;2023-03-30T01:15:14;13.30;87.00
10129;DHT22;5104;50.720;7.044;2023-03-30T01:27:13;13.70;1.00
10129;DHT22;5104;50.720;7.044;2023-03-30T01:29:54;13.90;1.00
10129;DHT22;5104;50.720;7.044;2023-03-30T01:35:40;14.10;1.00
10129;DHT22;5104;50.720;7.044;2023-03-30T01:38:55;14.20;1.00
10129;DHT22;5104;50.720;7.044;2023-03-30T01:41:28;14.30;1.00
10129;DHT22;5104;50.720;7.044;2023-03-30T01:44:02;14.30;1.00
10129;DHT22;5104;50.720;7.044;2023-03-30T01:46:32;14.50;1.00
10129;DHT22;5104;50.720;7.044;2023-03-30T01:49:10;14.60;1.00
10129;DHT22;5104;50.720;7.044;2023-03-30T01:51:43;14.70;1.00
10129;DHT22;5104;50.720;7.044;2023-03-30T01:54:16;14.90;1.00
10129;DHT22;5104;50.720;7.044;2023-03-30T01:56:46;14.80;1.00
10129;DHT22;5104;50.720;7.044;2023-03-30T01:59:19;15.00;1.00
10129;DHT22;5104;50.720;7.044;2023-03-30T02:01:49;15.10;1.00
10129;DHT22;5104;50.720;7.044;2023-03-30T02:04:21;15.10;1.00
10129;DHT22;5104;50.720;7.044;2023-03-30T02:06:52;15.30;1.00
10129;DHT22;5104;50.720;7.044;2023-03-30T02:09:23;15.40;1.00
10129;DHT22;5104;50.720;7.044;2023-03-30T02:11:52;15.40;1.00
10129;DHT22;5104;50.720;7.044;2023-03-30T02:14:24;15.40;1.00
10129;DHT22;5104;50.720;7.044;2023-03-30T02:16:56;15.40;1.00
10129;DHT22;5104;50.720;7.044;2023-03-30T02:19:25;15.30;1.00
10129;DHT22;5104;50.720;7.044;2023-03-30T02:21:52;15.20;1.00
10129;DHT22;5104;50.720;7.044;2023-03-30T02:24:27;15.10;1.00
10129;DHT22;5104;50.720;7.044;2023-03-30T02:26:58;15.10;1.00
10129;DHT22;5104;50.720;7.044;2023-03-30T02:29:27;15.10;1.00
10129;DHT22;5104;50.720;7.044;2023-03-30T02:31:56;15.10;1.00
10129;DHT22;5104;50.720;7.044;2023-03-30T02:34:35;15.10;1.00
10129;DHT22;5104;50.720;7.044;2023-03-30T02:37:26;15.10;1.00
10129;DHT22;5104;50.720;7.044;2023-03-30T02:40:10;15.10;1.00
10129;DHT22;5104;50.720;7.044;2023-03-30T02:43:12;15.10;1.00
10129;DHT22;5104;50.720;7.044;2023-03-30T02:45:51;15.00;1.00
10129;DHT22;5104;50.720;7.044;2023-03-30T02:48:28;14.90;1.00
10129;DHT22;5104;50.720;7.044;2023-03-30T02:51:06;14.90;1.00
10129;DHT22;5104;50.720;7.044;2023-03-30T02:53:42;14.70;1.00
10129;DHT22;5104;50.720;7.044;2023-03-30T02:56:16;14.60;51.90
10129;DHT22;5104;50.720;7.044;2023-03-30T02:58:49;14.50;99.90
10129;DHT22;5104;50.720;7.044;2023-03-30T03:01:25;14.30;99.90
10129;DHT22;5104;50.720;7.044;2023-03-30T03:03:56;14.30;99.90
10129;DHT22;5104;50.720;7.044;2023-03-30T03:06:24;14.30;99.90
10129;DHT22;5104;50.720;7.044;2023-03-30T03:08:53;14.20;99.90
10129;DHT22;5104;50.720;7.044;2023-03-30T03:11:23;14.10;99.90
10129;DHT22;5104;50.720;7.044;2023-03-30T03:13:50;14.00;1.00
10129;DHT22;5104;50.720;7.044;2023-03-30T03:16:17;13.90;1.00
10129;DHT22;5104;50.720;7.044;2023-03-30T03:18:44;13.80;1.00
10129;DHT22;5104;50.720;7.044;2023-03-30T03:21:12;13.80;1.00
10129;DHT22;5104;50.720;7.044;2023-03-30T03:23:39;13.80;1.00
10129;DHT22;5104;50.720;7.044;2023-03-30T03:26:06;13.90;1.00
10129;DHT22;5104;50.720;7.044;2023-03-30T03:28:34;13.80;1.00
10129;DHT22;5104;50.720;7.044;2023-03-30T03:31:02;13.70;99.90
10129;DHT22;5104;50.720;7.044;2023-03-30T03:33:30;13.60;99.90
10129;DHT22;5104;50.720;7.044;2023-03-30T03:35:58;13.70;99.90
10129;DHT22;5104;50.720;7.044;2023-03-30T03:38:25;13.70;1.00
10129;DHT22;5104;50.720;7.044;2023-03-30T03:40:54;13.80;99.90
10129;DHT22;5104;50.720;7.044;2023-03-30T03:43:22;13.70;99.90
10129;DHT22;5104;50.720;7.044;2023-03-30T03:45:51;13.80;1.00
10129;DHT22;5104;50.720;7.044;2023-03-30T03:48:19;13.70;1.00
10129;DHT22;5104;50.720;7.044;2023-03-30T03:50:49;13.80;1.00
10129;DHT22;5104;50.720;7.044;2023-03-30T03:53:17;13.80;99.90
10129;DHT22;5104;50.720;7.044;2023-03-30T03:55:44;13.80;1.00
10129;DHT22;5104;50.720;7.044;2023-03-30T03:58:14;13.80;1.00
10129;DHT22;5104;50.720;7.044;2023-03-30T04:00:41;13.70;1.00
10129;DHT22;5104;50.720;7.044;2023-03-30T04:03:10;13.80;1.00
10129;DHT22;5104;50.720;7.044;2023-03-30T04:05:37;13.80;1.00
10129;DHT22;5104;50.720;7.044;2023-03-30T04:08:05;13.70;1.00
10129;DHT22;5104;50.720;7.044;2023-03-30T04:10:35;13.80;1.00
10129;DHT22;5104;50.720;7.044;2023-03-30T04:13:03;13.80;1.00
10129;DHT22;5104;50.720;7.044;2023-03-30T04:15:30;13.80;1.00
10129;DHT22;5104;50.720;7.044;2023-03-30T04:17:57;13.80;1.00
10129;DHT22;5104;50.720;7.044;2023-03-30T04:20:26;13.90;1.00
10129;DHT22;5104;50.720;7.044;2023-03-30T04:22:54;13.90;1.00
10129;DHT22;5104;50.720;7.044;2023-03-30T04:25:22;14.00;1.00
10129;DHT22;5104;50.720;7.044;2023-03-30T04:27:51;14.00;1.00
10129;DHT22;5104;50.720;7.044;2023-03-30T04:30:19;14.00;1.00
10129;DHT22;5104;50.720;7.044;2023-03-30T04:32:47;14.00;1.00
10129;DHT22;5104;50.720;7.044;2023-03-30T04:35:28;14.00;1.00
10129;DHT22;5104;50.720;7.044;2023-03-30T04:37:55;14.00;1.00
10129;DHT22;5104;50.720;7.044;2023-03-30T04:40:23;14.00;1.00
10129;DHT22;5104;50.720;7.044;2023-03-30T04:42:50;14.10;1.00
10129;DHT22;5104;50.720;7.044;2023-03-30T04:45:17;14.10;1.00
10129;DHT22;5104;50.720;7.044;2023-03-30T04:47:44;14.20;99.90
10129;DHT22;5104;50.720;7.044;2023-03-30T04:50:12;14.20;99.90
10129;DHT22;5104;50.720;7.044;2023-03-30T04:52:40;14.10;99.90
10129;DHT22;5104;50.720;7.044;2023-03-30T04:55:08;14.20;99.90
10129;DHT22;5104;50.720;7.044;2023-03-30T04:57:36;14.10;99.90
10129;DHT22;5104;50.720;7.044;2023-03-30T05:00:05;14.20;99.90
10129;DHT22;5104;50.720;7.044;2023-03-30T05:02:34;14.10;99.90
10129;DHT22;5104;50.720;7.044;2023-03-30T05:05:01;14.10;99.90
10129;DHT22;5104;50.720;7.044;2023-03-30T05:07:28;14.10;99.90
10129;DHT22;5104;50.720;7.044;2023-03-30T05:09:56;14.20;99.90
10129;DHT22;5104;50.720;7.044;2023-03-30T05:12:23;14.20;99.90
10129;DHT22;5104;50.720;7.044;2023-03-30T05:14:49;14.20;99.90
10129;DHT22;5104;50.720;7.044;2023-03-30T05:17:16;14.10;99.90
10129;DHT22;5104;50.720;7.044;2023-03-30T05:19:43;14.20;99.90
10129;DHT22;5104;50.720;7.044;2023-03-30T05:22:11;14.10;99.90
10129;DHT22;5104;50.720;7.044;2023-03-30T05:24:38;14.20;99.90
10129;DHT22;5104;50.720;7.044;2023-03-30T05:27:06;14.10;99.90
10129;DHT22;5104;50.720;7.044;2023-03-30T05:29:33;14.10;99.90
10129;DHT22;5104;50.720;7.044;2023-03-30T05:32:00;14.10;99.90
10129;DHT22;5104;50.720;7.044;2023-03-30T05:34:27;14.10;99.90
10129;DHT22;5104;50.720;7.044;2023-03-30T05:36:54;14.10;99.90
10129;DHT22;5104;50.720;7.044;2023-03-30T05:39:21;14.20;99.90
10129;DHT22;5104;50.720;7.044;2023-03-30T05:41:49;14.20;98.90
10129;DHT22;5104;50.720;7.044;2023-03-30T05:44:17;14.20;99.90
10129;DHT22;5104;50.720;7.044;2023-03-30T05:46:45;14.30;48.70
10129;DHT22;5104;50.720;7.044;2023-03-30T05:49:12;14.30;1.00
10129;DHT22;5104;50.720;7.044;2023-03-30T05:51:39;14.30;1.00
10129;DHT22;5104;50.720;7.044;2023-03-30T05:54:10;14.30;1.00
10129;DHT22;5104;50.720;7.044;2023-03-30T05:56:38;14.30;1.00
10129;DHT22;5104;50.720;7.044;2023-03-30T05:59:06;14.30;1.00
10129;DHT22;5104;50.720;7.044;2023-03-30T06:01:35;14.30;1.00
10129;DHT22;5104;50.720;7.044;2023-03-30T06:04:02;14.30;1.00
10129;DHT22;5104;50.720;7.044;2023-03-30T06:06:29;14.40;1.00
10129;DHT22;5104;50.720;7.044;2023-03-30T06:08:57;14.40;1.00
10129;DHT22;5104;50.720;7.044;2023-03-30T06:11:23;14.40;1.00
10129;DHT22;5104;50.720;7.044;2023-03-30T06:13:50;14.40;1.00
10129;DHT22;5104;50.720;7.044;2023-03-30T06:16:17;14.40;1.00
10129;DHT22;5104;50.720;7.044;2023-03-30T06:18:45;14.50;1.00
10129;DHT22;5104;50.720;7.044;2023-03-30T06:21:12;14.40;1.00
10129;DHT22;5104;50.720;7.044;2023-03-30T06:23:39;14.40;1.00
10129;DHT22;5104;50.720;7.044;2023-03-30T06:26:07;14.40;1.00
10129;DHT22;5104;50.720;7.044;2023-03-30T06:28:34;14.30;1.00
10129;DHT22;5104;50.720;7.044;2023-03-30T06:31:07;14.20;1.00
10129;DHT22;5104;50.720;7.044;2023-03-30T06:33:34;14.30;1.00
10129;DHT22;5104;50.720;7.044;2023-03-30T06:36:03;14.30;1.00
10129;DHT22;5104;50.720;7.044;2023-03-30T06:38:35;14.40;1.00
10129;DHT22;5104;50.720;7.044;2023-03-30T06:41:03;14.40;1.00
10129;DHT22;5104;50.720;7.044;2023-03-30T06:43:31;14.60;1.00
10129;DHT22;5104;50.720;7.044;2023-03-30T06:45:58;14.70;1.00
10129;DHT22;5104;50.720;7.044;2023-03-30T06:48:26;14.90;1.00
10129;DHT22;5104;50.720;7.044;2023-03-30T06:50:53;15.10;99.90
10129;DHT22;5104;50.720;7.044;2023-03-30T06:53:22;15.20;99.90
10129;DHT22;5104;50.720;7.044;2023-03-30T06:55:50;15.30;99.90
10129;DHT22;5104;50.720;7.044;2023-03-30T06:58:17;15.30;99.90
10129;DHT22;5104;50.720;7.044;2023-03-30T07:00:44;15.30;99.90
10129;DHT22;5104;50.720;7.044;2023-03-30T07:03:11;15.30;99.90
10129;DHT22;5104;50.720;7.044;2023-03-30T07:05:38;15.30;99.90
10129;DHT22;5104;50.720;7.044;2023-03-30T07:08:06;15.20;99.90
10129;DHT22;5104;50.720;7.044;2023-03-30T07:10:35;15.20;99.90
10129;DHT22;5104;50.720;7.044;2023-03-30T07:13:02;15.10;99.90
10129;DHT22;5104;50.720;7.044;2023-03-30T07:15:29;15.10;1.00
10129;DHT22;5104;50.720;7.044;2023-03-30T07:17:56;15.10;1.00
10129;DHT22;5104;50.720;7.044;2023-03-30T07:20:23;15.10;1.00
10129;DHT22;5104;50.720;7.044;2023-03-30T07:22:50;15.20;99.90
10129;DHT22;5104;50.720;7.044;2023-03-30T07:25:17;15.40;99.90
10129;DHT22;5104;50.720;7.044;2023-03-30T07:27:46;15.50;99.90
10129;DHT22;5104;50.720;7.044;2023-03-30T07:30:13;15.50;99.90
10129;DHT22;5104;50.720;7.044;2023-03-30T07:32:41;15.70;99.90
10129;DHT22;5104;50.720;7.044;2023-03-30T07:35:08;15.80;90.40
10129;DHT22;5104;50.720;7.044;2023-03-30T07:37:36;15.90;32.90
10129;DHT22;5104;50.720;7.044;2023-03-30T07:40:05;16.10;1.00
10129;DHT22;5104;50.720;7.044;2023-03-30T07:42:35;16.10;1.00
10129;DHT22;5104;50.720;7.044;2023-03-30T07:45:04;16.30;1.00
10129;DHT22;5104;50.720;7.044;2023-03-30T07:47:31;16.30;1.00
10129;DHT22;5104;50.720;7.044;2023-03-30T07:49:59;16.30;1.00
10129;DHT22;5104;50.720;7.044;2023-03-30T07:52:27;16.30;1.00
10129;DHT22;5104;50.720;7.044;2023-03-30T07:54:55;16.50;1.00
10129;DHT22;5104;50.720;7.044;2023-03-30T07:57:23;16.70;1.00
10129;DHT22;5104;50.720;7.044;2023-03-30T07:59:50;16.70;1.00
10129;DHT22;5104;50.720;7.044;2023-03-30T08:02:18;16.60;1.00
10129;DHT22;5104;50.720;7.044;2023-03-30T08:04:45;16.60;1.00
10129;DHT22;5104;50.720;7.044;2023-03-30T08:07:12;16.70;1.00
10129;DHT22;5104;50.720;7.044;2023-03-30T08:09:39;16.70;1.00
10129;DHT22;5104;50.720;7.044;2023-03-30T08:12:06;16.80;1.00
10129;DHT22;5104;50.720;7.044;2023-03-30T08:14:33;17.10;99.90
10129;DHT22;5104;50.720;7.044;2023-03-30T08:17:00;17.10;99.90
10129;DHT22;5104;50.720;7.044;2023-03-30T08:19:29;17.10;99.90
10129;DHT22;5104;50.720;7.044;2023-03-30T08:21:56;17.00;99.90
10129;DHT22;5104;50.720;7.044;2023-03-30T08:24:26;17.00;99.90
10129;DHT22;5104;50.720;7.044;2023-03-30T08:26:53;17.00;99.90
10129;DHT22;5104;50.720;7.044;2023-03-30T08:29:25;16.90;99.90
10129;DHT22;5104;50.720;7.044;2023-03-30T08:31:54;16.90;99.90
10129;DHT22;5104;50.720;7.044;2023-03-30T08:34:21;16.90;99.90
10129;DHT22;5104;50.720;7.044;2023-03-30T08:36:49;17.00;99.90
10129;DHT22;5104;50.720;7.044;2023-03-30T08:39:16;16.90;99.90
10129;DHT22;5104;50.720;7.044;2023-03-30T08:42:05;17.00;99.90
10129;DHT22;5104;50.720;7.044;2023-03-30T08:44:35;17.20;99.90
10129;DHT22;5104;50.720;7.044;2023-03-30T08:47:04;17.30;99.90
10129;DHT22;5104;50.720;7.044;2023-03-30T08:49:37;17.30;99.90
10129;DHT22;5104;50.720;7.044;2023-03-30T08:52:18;17.30;99.90
10129;DHT22;5104;50.720;7.044;2023-03-30T08:54:47;17.50;99.90
10129;DHT22;5104;50.720;7.044;2023-03-30T08:57:17;17.50;99.90
10129;DHT22;5104;50.720;7.044;2023-03-30T08:59:53;17.50;99.90
10129;DHT22;5104;50.720;7.044;2023-03-30T09:02:29;17.60;99.90
10129;DHT22;5104;50.720;7.044;2023-03-30T09:04:59;17.70;99.90
10129;DHT22;5104;50.720;7.044;2023-03-30T09:07:33;17.80;89.30
10129;DHT22;5104;50.720;7.044;2023-03-30T09:10:03;17.70;82.60
10129;DHT22;5104;50.720;7.044;2023-03-30T09:12:36;17.70;92.00
10129;DHT22;5104;50.720;7.044;2023-03-30T09:15:05;17.50;93.80
10129;DHT22;5104;50.720;7.044;2023-03-30T09:17:38;17.50;79.40
10129;DHT22;5104;50.720;7.044;2023-03-30T09:20:10;17.60;75.40
10129;DHT22;5104;50.720;7.044;2023-03-30T09:22:42;17.40;81.30
10129;DHT22;5104;50.720;7.044;2023-03-30T09:25:14;17.30;86.90
10129;DHT22;5104;50.720;7.044;2023-03-30T09:27:49;17.40;97.30
10129;DHT22;5104;50.720;7.044;2023-03-30T09:30:22;17.50;73.40
10129;DHT22;5104;50.720;7.044;2023-03-30T09:32:58;17.40;67.50
10129;DHT22;5104;50.720;7.044;2023-03-30T09:35:29;17.30;75.20
10129;DHT22;5104;50.720;7.044;2023-03-30T09:38:02;17.30;78.90
10129;DHT22;5104;50.720;7.044;2023-03-30T09:40:58;17.30;66.60
10129;DHT22;5104;50.720;7.044;2023-03-30T09:43:33;17.10;80.50
10129;DHT22;5104;50.720;7.044;2023-03-30T09:46:04;17.10;86.10
10129;DHT22;5104;50.720;7.044;2023-03-30T09:48:40;17.20;92.50
10129;DHT22;5104;50.720;7.044;2023-03-30T09:51:15;17.50;77.70
10129;DHT22;5104;50.720;7.044;2023-03-30T09:53:46;17.60;71.30
10129;DHT22;5104;50.720;7.044;2023-03-30T09:56:20;17.60;91.80
10129;DHT22;5104;50.720;7.044;2023-03-30T09:58:47;17.70;77.20
10129;DHT22;5104;50.720;7.044;2023-03-30T10:01:16;17.40;32.30
10129;DHT22;5104;50.720;7.044;2023-03-30T10:03:44;15.40;99.90
10129;DHT22;5104;50.720;7.044;2023-03-30T10:06:15;13.80;1.00
10129;DHT22;5104;50.720;7.044;2023-03-30T10:08:49;12.80;1.00
10129;DHT22;5104;50.720;7.044;2023-03-30T10:11:19;12.20;1.00
10129;DHT22;5104;50.720;7.044;2023-03-30T10:13:48;11.60;99.90
10129;DHT22;5104;50.720;7.044;2023-03-30T10:16:22;11.30;1.00
10129;DHT22;5104;50.720;7.044;2023-03-30T10:18:52;11.20;99.90
10129;DHT22;5104;50.720;7.044;2023-03-30T10:21:22;11.30;99.90
10129;DHT22;5104;50.720;7.044;2023-03-30T10:24:01;11.40;99.90
10129;DHT22;5104;50.720;7.044;2023-03-30T10:26:30;11.50;1.00
10129;DHT22;5104;50.720;7.044;2023-03-30T10:29:01;11.50;1.00
10129;DHT22;5104;50.720;7.044;2023-03-30T10:31:30;11.40;99.90
10129;DHT22;5104;50.720;7.044;2023-03-30T10:33:59;11.50;1.00
10129;DHT22;5104;50.720;7.044;2023-03-30T10:36:29;11.50;99.90
10129;DHT22;5104;50.720;7.044;2023-03-30T10:39:05;11.60;1.00
10129;DHT22;5104;50.720;7.044;2023-03-30T10:41:35;11.70;99.90
10129;DHT22;5104;50.720;7.044;2023-03-30T10:44:14;11.60;1.00
10129;DHT22;5104;50.720;7.044;2023-03-30T10:46:43;11.80;6.60
10129;DHT22;5104;50.720;7.044;2023-03-30T10:49:16;11.90;1.00
10129;DHT22;5104;50.720;7.044;2023-03-30T10:51:56;12.30;99.90
10129;DHT22;5104;50.720;7.044;2023-03-30T10:54:32;12.40;1.00
10129;DHT22;5104;50.720;7.044;2023-03-30T10:57:08;12.40;1.00
10129;DHT22;5104;50.720;7.044;2023-03-30T11:00:05;12.60;1.00
10129;DHT22;5104;50.720;7.044;2023-03-30T11:02:45;12.90;21.70
10129;DHT22;5104;50.720;7.044;2023-03-30T11:05:16;13.30;1.00
10129;DHT22;5104;50.720;7.044;2023-03-30T11:07:46;13.50;99.90
10129;DHT22;5104;50.720;7.044;2023-03-30T11:10:18;13.70;99.90
10129;DHT22;5104;50.720;7.044;2023-03-30T11:12:49;13.70;1.00
10129;DHT22;5104;50.720;7.044;2023-03-30T11:15:21;14.00;1.00
10129;DHT22;5104;50.720;7.044;2023-03-30T11:17:58;14.40;1.00
10129;DHT22;5104;50.720;7.044;2023-03-30T11:20:29;14.50;19.60
10129;DHT22;5104;50.720;7.044;2023-03-30T11:23:06;14.60;99.90
10129;DHT22;5104;50.720;7.044;2023-03-30T11:25:43;14.70;1.00
10129;DHT22;5104;50.720;7.044;2023-03-30T11:28:17;14.70;1.00
10129;DHT22;5104;50.720;7.044;2023-03-30T11:30:48;14.70;1.00
10129;DHT22;5104;50.720;7.044;2023-03-30T11:33:20;14.40;1.00
10129;DHT22;5104;50.720;7.044;2023-03-30T11:35:52;14.20;1.00
10129;DHT22;5104;50.720;7.044;2023-03-30T11:38:25;14.00;99.90
10129;DHT22;5104;50.720;7.044;2023-03-30T11:40:58;13.80;1.00
10129;DHT22;5104;50.720;7.044;2023-03-30T11:43:28;13.70;99.90
10129;DHT22;5104;50.720;7.044;2023-03-30T11:46:00;13.60;99.90
10129;DHT22;5104;50.720;7.044;2023-03-30T11:51:45;13.70;99.90
10129;DHT22;5104;50.720;7.044;2023-03-30T11:54:29;13.80;99.90
10129;DHT22;5104;50.720;7.044;2023-03-30T11:57:07;13.80;99.90
10129;DHT22;5104;50.720;7.044;2023-03-30T11:59:43;13.90;1.00
10129;DHT22;5104;50.720;7.044;2023-03-30T12:02:21;13.90;1.00
10129;DHT22;5104;50.720;7.044;2023-03-30T12:04:55;13.90;1.00
10129;DHT22;5104;50.720;7.044;2023-03-30T12:07:30;13.90;1.00
10129;DHT22;5104;50.720;7.044;2023-03-30T12:10:01;14.00;99.90
10129;DHT22;5104;50.720;7.044;2023-03-30T12:12:32;14.10;1.00
10129;DHT22;5104;50.720;7.044;2023-03-30T12:15:14;14.20;99.90
10129;DHT22;5104;50.720;7.044;2023-03-30T12:17:50;14.10;99.90
10129;DHT22;5104;50.720;7.044;2023-03-30T12:20:32;14.20;99.90
10129;DHT22;5104;50.720;7.044;2023-03-30T12:23:08;14.30;1.00
10129;DHT22;5104;50.720;7.044;2023-03-30T12:25:48;14.40;1.00
10129;DHT22;5104;50.720;7.044;2023-03-30T12:28:23;14.60;1.00
10129;DHT22;5104;50.720;7.044;2023-03-30T12:30:53;14.70;1.00
10129;DHT22;5104;50.720;7.044;2023-03-30T12:33:26;14.80;1.00
10129;DHT22;5104;50.720;7.044;2023-03-30T12:35:58;15.10;99.90
10129;DHT22;5104;50.720;7.044;2023-03-30T12:38:26;15.10;99.90
10129;DHT22;5104;50.720;7.044;2023-03-30T12:41:07;15.30;26.00
10129;DHT22;5104;50.720;7.044;2023-03-30T12:44:07;15.50;1.00
10129;DHT22;5104;50.720;7.044;2023-03-30T12:46:44;15.40;1.00
10129;DHT22;5104;50.720;7.044;2023-03-30T12:49:21;15.50;1.00
10129;DHT22;5104;50.720;7.044;2023-03-30T12:51:59;15.40;1.00
10129;DHT22;5104;50.720;7.044;2023-03-30T12:54:45;15.50;1.00
10129;DHT22;5104;50.720;7.044;2023-03-30T12:57:23;15.50;1.00
10129;DHT22;5104;50.720;7.044;2023-03-30T13:05:59;15.80;1.00
10129;DHT22;5104;50.720;7.044;2023-03-30T13:08:31;16.00;1.00
10129;DHT22;5104;50.720;7.044;2023-03-30T13:11:08;16.20;1.00
10129;DHT22;5104;50.720;7.044;2023-03-30T13:13:49;16.50;1.00
10129;DHT22;5104;50.720;7.044;2023-03-30T13:19:44;16.90;99.90
10129;DHT22;5104;50.720;7.044;2023-03-30T13:22:27;17.40;99.90
10129;DHT22;5104;50.720;7.044;2023-03-30T13:24:57;17.70;99.90
10129;DHT22;5104;50.720;7.044;2023-03-30T13:27:29;17.50;99.90
10129;DHT22;5104;50.720;7.044;2023-03-30T13:29:58;17.80;99.90
10129;DHT22;5104;50.720;7.044;2023-03-30T13:32:43;17.60;99.90
10129;DHT22;5104;50.720;7.044;2023-03-30T13:35:29;17.60;99.90
10129;DHT22;5104;50.720;7.044;2023-03-30T13:38:10;17.30;99.90
10129;DHT22;5104;50.720;7.044;2023-03-30T13:40:44;17.00;99.90
10129;DHT22;5104;50.720;7.044;2023-03-30T13:43:20;17.10;99.90
10129;DHT22;5104;50.720;7.044;2023-03-30T13:45:54;17.00;99.90
10129;DHT22;5104;50.720;7.044;2023-03-30T13:48:34;16.70;99.90
10129;DHT22;5104;50.720;7.044;2023-03-30T13:51:13;16.60;99.90
10129;DHT22;5104;50.720;7.044;2023-03-30T13:53:43;16.50;99.90
10129;DHT22;5104;50.720;7.044;2023-03-30T13:56:12;16.30;99.90
10129;DHT22;5104;50.720;7.044;2023-03-30T13:58:43;16.10;99.90
10129;DHT22;5104;50.720;7.044;2023-03-30T14:01:18;15.70;1.00
10129;DHT22;5104;50.720;7.044;2023-03-30T14:03:48;15.20;99.90
10129;DHT22;5104;50.720;7.044;2023-03-30T14:06:18;15.10;1.00
10129;DHT22;5104;50.720;7.044;2023-03-30T14:08:46;15.10;33.80
10129;DHT22;5104;50.720;7.044;2023-03-30T14:11:17;15.10;1.00
10129;DHT22;5104;50.720;7.044;2023-03-30T14:13:46;15.10;1.00
10129;DHT22;5104;50.720;7.044;2023-03-30T14:16:18;15.10;1.00
10129;DHT22;5104;50.720;7.044;2023-03-30T14:18:46;15.20;99.90
10129;DHT22;5104;50.720;7.044;2023-03-30T14:21:17;15.20;99.90
10129;DHT22;5104;50.720;7.044;2023-03-30T14:23:47;15.30;99.90
10129;DHT22;5104;50.720;7.044;2023-03-30T14:26:15;15.30;99.90
10129;DHT22;5104;50.720;7.044;2023-03-30T14:28:43;15.40;99.90
10129;DHT22;5104;50.720;7.044;2023-03-30T14:31:15;15.60;52.10
10129;DHT22;5104;50.720;7.044;2023-03-30T14:33:42;15.70;1.00
10129;DHT22;5104;50.720;7.044;2023-03-30T14:36:14;15.90;1.00
10129;DHT22;5104;50.720;7.044;2023-03-30T14:38:45;16.00;1.00
10129;DHT22;5104;50.720;7.044;2023-03-30T14:41:15;16.20;99.90
10129;DHT22;5104;50.720;7.044;2023-03-30T14:43:50;16.50;99.90
10129;DHT22;5104;50.720;7.044;2023-03-30T14:46:18;16.60;99.90
10129;DHT22;5104;50.720;7.044;2023-03-30T14:48:47;16.80;99.90
10129;DHT22;5104;50.720;7.044;2023-03-30T14:51:23;16.90;99.90
10129;DHT22;5104;50.720;7.044;2023-03-30T14:53:52;17.00;99.90
10129;DHT22;5104;50.720;7.044;2023-03-30T14:56:21;17.10;78.50
10129;DHT22;5104;50.720;7.044;2023-03-30T14:58:50;17.20;36.30
10129;DHT22;5104;50.720;7.044;2023-03-30T15:01:20;17.50;23.90
10129;DHT22;5104;50.720;7.044;2023-03-30T15:03:49;17.60;23.30
10129;DHT22;5104;50.720;7.044;2023-03-30T15:06:21;17.60;34.30
10129;DHT22;5104;50.720;7.044;2023-03-30T15:08:50;17.30;24.70
10129;DHT22;5104;50.720;7.044;2023-03-30T15:11:19;17.30;42.50
10129;DHT22;5104;50.720;7.044;2023-03-30T15:13:50;17.60;95.20
10129;DHT22;5104;50.720;7.044;2023-03-30T15:16:19;17.80;59.00
10129;DHT22;5104;50.720;7.044;2023-03-30T15:18:49;18.00;1.00
10129;DHT22;5104;50.720;7.044;2023-03-30T15:21:17;18.20;1.00
10129;DHT22;5104;50.720;7.044;2023-03-30T15:23:46;18.60;1.00
10129;DHT22;5104;50.720;7.044;2023-03-30T15:26:16;18.70;1.00
10129;DHT22;5104;50.720;7.044;2023-03-30T15:28:46;18.60;1.00
10129;DHT22;5104;50.720;7.044;2023-03-30T15:31:14;18.90;1.00
10129;DHT22;5104;50.720;7.044;2023-03-30T15:33:44;19.00;1.00
10129;DHT22;5104;50.720;7.044;2023-03-30T15:36:16;18.80;1.00
10129;DHT22;5104;50.720;7.044;2023-03-30T15:38:46;18.50;11.10
10129;DHT22;5104;50.720;7.044;2023-03-30T15:41:16;18.30;15.50
10129;DHT22;5104;50.720;7.044;2023-03-30T15:43:56;18.40;77.80
10129;DHT22;5104;50.720;7.044;2023-03-30T15:46:24;18.30;92.50
10129;DHT22;5104;50.720;7.044;2023-03-30T15:48:52;18.30;99.90
10129;DHT22;5104;50.720;7.044;2023-03-30T15:51:24;18.30;99.90
10129;DHT22;5104;50.720;7.044;2023-03-30T15:53:54;18.10;99.90
10129;DHT22;5104;50.720;7.044;2023-03-30T15:56:28;18.00;99.90
10129;DHT22;5104;50.720;7.044;2023-03-30T15:58:56;17.70;99.90
10129;DHT22;5104;50.720;7.044;2023-03-30T16:01:27;17.20;99.90
10129;DHT22;5104;50.720;7.044;2023-03-30T16:04:04;17.10;99.90
10129;DHT22;5104;50.720;7.044;2023-03-30T16:06:33;16.80;91.00
10129;DHT22;5104;50.720;7.044;2023-03-30T16:09:00;16.70;51.90
10129;DHT22;5104;50.720;7.044;2023-03-30T16:11:28;16.70;32.20
10129;DHT22;5104;50.720;7.044;2023-03-30T16:13:55;16.70;30.30
10129;DHT22;5104;50.720;7.044;2023-03-30T16:16:22;16.70;26.70
10129;DHT22;5104;50.720;7.044;2023-03-30T16:18:49;16.50;38.00
10129;DHT22;5104;50.720;7.044;2023-03-30T16:21:17;16.20;58.00
10129;DHT22;5104;50.720;7.044;2023-03-30T16:23:44;16.10;74.10
10129;DHT22;5104;50.720;7.044;2023-03-30T16:26:11;16.00;95.30
10129;DHT22;5104;50.720;7.044;2023-03-30T16:28:39;16.00;99.90
10129;DHT22;5104;50.720;7.044;2023-03-30T16:31:11;16.00;99.90
10129;DHT22;5104;50.720;7.044;2023-03-30T16:33:39;16.10;99.90
10129;DHT22;5104;50.720;7.044;2023-03-30T16:36:08;16.40;95.50
10129;DHT22;5104;50.720;7.044;2023-03-30T16:38:37;17.00;65.30
10129;DHT22;5104;50.720;7.044;2023-03-30T16:41:04;17.40;19.70
10129;DHT22;5104;50.720;7.044;2023-03-30T16:43:32;17.60;1.00